This is the latest recevied weather packets stored in our database for station/object 9W2CEW-1. If no packets are shown the sender has not sent any weather packets the latest 10 day(s).
| Time | Temp. | Humidity | Pressure | Rain* | Wind** | Luminosity | Snow |
|---|---|---|---|---|---|---|---|
| 1788001715 | 36.67° C | 45% | 1002.9 hPa | - | - | - | - |
| 1788000814 | 36.11° C | 46% | 1002.4 hPa | - | - | - | - |
| 1787999914 | 36.67° C | 46% | 1002.1 hPa | - | - | - | - |
| 1787999014 | 37.78° C | 42% | 1002.1 hPa | - | - | - | - |
| 1787998844 | 38.89° C | 35% | 1003.1 hPa | - | - | - | - |
| 1787998113 | 37.22° C | 42% | 1002 hPa | - | - | - | - |
| 1787997213 | 38.33° C | 41% | 1001.9 hPa | - | - | - | - |
| 1787996313 | 36.67° C | 44% | 1001.8 hPa | - | - | - | - |
| 1787995413 | 38.33° C | 40% | 1002.1 hPa | - | - | - | - |
| 1787994513 | 38.89° C | 39% | 1002 hPa | - | - | - | - |
| 1787993613 | 37.78° C | 40% | 1002 hPa | - | - | - | - |
| 1787992713 | 37.78° C | 40% | 1002.1 hPa | - | - | - | - |
| 1787991813 | 37.78° C | 42% | 1002.3 hPa | - | - | - | - |
| 1787990915 | 36.67° C | 42% | 1002.1 hPa | - | - | - | - |
| 1787990015 | 36.67° C | 42% | 1002.4 hPa | - | - | - | - |
| 1787989114 | 37.78° C | 40% | 1002.2 hPa | - | - | - | - |
| 1787988214 | 36.67° C | 41% | 1002.9 hPa | - | - | - | - |
| 1787987314 | 38.33° C | 39% | 1003.1 hPa | - | - | - | - |
| 1787986417 | 38.89° C | 35% | 1003.1 hPa | - | - | - | - |
| 1787985514 | 38.89° C | 37% | 1003.4 hPa | - | - | - | - |
| 1787984614 | 38.33° C | 38% | 1003.4 hPa | - | - | - | - |
| 1787983714 | 37.78° C | 38% | 1003.7 hPa | - | - | - | - |
| 1787982814 | 38.33° C | 37% | 1004.1 hPa | - | - | - | - |
| 1787982609 | 35.56° C | 46% | 1004.4 hPa | - | - | - | - |
| 1787981914 | 38.89° C | 36% | 1004.3 hPa | - | - | - | - |
* Rain since midnight (hover to see other rain measurements)
** Current wind speed in m/s (hover to see current wind gust speed)